Time;durP1;ratioP1;P1;durP2;ratioP2;P2;SDS_P1;SDS_P2;PMS_P1;PMS_P2;Temp;Humidity;BMP_temperature;BMP_pressure;BME280_temperature;BME280_humidity;BME280_pressure;Samples;Min_cycle;Max_cycle;Signal;HPM_P1;HPM_P2
2023/04/03 00:00:31;;;;;;;2.63;2.40;;;;;;;2.50;69.04;98004.16;6141780;28;20281;-89
2023/04/03 00:03:34;;;;;;;2.87;2.57;;;;;;;2.33;67.98;97985.94;6117316;28;20293;-90
2023/04/03 00:06:36;;;;;;;4.33;3.00;;;;;;;2.78;65.57;98039.31;6134555;28;20241;-89
2023/04/03 00:09:38;;;;;;;3.30;2.80;;;;;;;2.81;66.70;98048.69;6134800;28;20730;-89
2023/04/03 00:12:40;;;;;;;2.77;2.47;;;;;;;2.53;66.53;98024.84;6134760;28;20256;-89
2023/04/03 00:15:43;;;;;;;4.33;2.83;;;;;;;3.22;68.53;98120.03;6139225;28;20357;-89
2023/04/03 00:18:45;;;;;;;3.57;2.80;;;;;;;3.20;68.31;98118.56;6122817;28;20349;-90
2023/04/03 00:21:47;;;;;;;3.40;2.67;;;;;;;2.88;66.39;98091.66;6114984;28;20777;-89
2023/04/03 00:24:49;;;;;;;2.93;2.60;;;;;;;3.32;68.07;98148.72;6119829;28;20265;-89
2023/04/03 00:27:51;;;;;;;3.63;2.77;;;;;;;3.14;66.86;98099.06;6119685;28;20258;-91
2023/04/03 00:30:53;;;;;;;3.60;2.70;;;;;;;2.75;66.52;98038.88;6132977;28;20234;-89
2023/04/03 00:33:55;;;;;;;4.33;2.63;;;;;;;2.69;66.28;98042.22;6133291;28;20232;-89
2023/04/03 00:36:57;;;;;;;2.60;2.30;;;;;;;2.59;67.13;98029.34;6132316;28;20230;-89
2023/04/03 00:40:00;;;;;;;3.17;2.43;;;;;;;2.57;67.00;98042.69;6114536;28;20238;-90
2023/04/03 00:43:12;;;;;;;3.63;2.30;;;;;;;3.18;67.14;98121.41;6172333;28;20226;-90
2023/04/03 00:46:14;;;;;;;2.60;2.30;;;;;;;1.65;67.73;97883.72;6174151;28;20234;-90
2023/04/03 00:49:16;;;;;;;3.17;2.60;;;;;;;2.43;67.76;98022.47;6145229;28;20250;-91
2023/04/03 00:52:22;;;;;;;4.50;2.80;;;;;;;2.49;68.09;98024.38;6163183;28;20245;-90
2023/04/03 00:55:25;;;;;;;3.67;2.40;;;;;;;1.66;67.94;97886.16;6129865;28;20241;-89
2023/04/03 00:58:39;;;;;;;3.50;2.50;;;;;;;3.20;67.77;98124.69;6134679;28;20235;-89
2023/04/03 01:01:42;;;;;;;5.03;2.57;;;;;;;2.56;69.03;98035.81;6126411;28;20642;-89
2023/04/03 01:04:45;;;;;;;3.30;2.57;;;;;;;2.85;68.91;98086.75;6102622;28;20365;-89
2023/04/03 01:07:50;;;;;;;3.77;2.77;;;;;;;3.05;67.76;98094.91;6117182;28;20230;-89
2023/04/03 01:10:53;;;;;;;2.93;2.57;;;;;;;3.03;67.08;98095.09;6100473;28;20243;-90
2023/04/03 01:13:56;;;;;;;4.57;2.93;;;;;;;2.84;68.81;98098.28;6116229;28;20329;-90
2023/04/03 01:17:00;;;;;;;2.57;2.37;;;;;;;0.39;69.23;97727.78;6116448;28;20230;-89
2023/04/03 01:20:14;;;;;;;4.33;2.87;;;;;;;3.26;68.43;98131.84;6115516;28;20241;-89
2023/04/03 01:23:16;;;;;;;3.77;2.53;;;;;;;3.17;68.53;98132.13;6102064;29;20332;-89
2023/04/03 01:26:18;;;;;;;3.17;2.77;;;;;;;2.75;69.25;98092.28;6120086;28;20321;-90
2023/04/03 01:29:20;;;;;;;3.43;2.53;;;;;;;2.71;69.27;98091.03;6120431;28;20317;-91
2023/04/03 01:32:22;;;;;;;4.00;2.67;;;;;;;2.67;69.79;98068.72;6135552;28;20613;-90
2023/04/03 01:35:26;;;;;;;4.73;2.90;;;;;;;1.50;69.14;97884.53;6115213;28;20772;-90
2023/04/03 01:38:28;;;;;;;3.60;2.73;;;;;;;2.84;69.45;98106.19;6122394;28;20653;-89
2023/04/03 01:41:30;;;;;;;4.43;2.60;;;;;;;2.83;70.57;98108.00;6132795;28;20231;-90
2023/04/03 01:44:41;;;;;;;4.00;2.50;;;;;;;2.83;68.94;98079.06;6111990;28;20644;-89
2023/04/03 01:47:44;;;;;;;4.43;2.90;;;;;;;2.43;69.69;98027.75;6116421;28;20234;-90
2023/04/03 01:50:46;;;;;;;5.43;3.10;;;;;;;1.84;70.30;97942.78;6114657;28;20226;-89
2023/04/03 01:53:48;;;;;;;4.30;2.97;;;;;;;2.77;69.51;98071.09;6100288;28;20238;-88
2023/04/03 01:56:51;;;;;;;2.73;2.30;;;;;;;2.69;69.78;98063.28;6120039;28;20266;-89
2023/04/03 01:59:54;;;;;;;3.20;2.63;;;;;;;2.38;70.03;98021.41;6131415;28;20585;-89
2023/04/03 02:02:56;;;;;;;2.77;2.50;;;;;;;1.51;69.55;97906.34;6131295;28;20236;-89
2023/04/03 02:06:00;;;;;;;5.63;2.90;;;;;;;2.37;69.86;98006.63;6115799;28;20613;-89
2023/04/03 02:09:03;;;;;;;6.27;3.03;;;;;;;3.00;69.54;98113.06;6111399;28;20704;-89
2023/04/03 02:12:06;;;;;;;3.50;2.57;;;;;;;2.85;69.25;98105.97;6114727;28;20261;-90
2023/04/03 02:15:08;;;;;;;3.57;2.77;;;;;;;2.70;67.70;98049.13;6123199;28;20354;-90
2023/04/03 02:18:11;;;;;;;5.83;2.70;;;;;;;3.11;67.88;98102.09;6129803;28;20225;-89
2023/04/03 02:21:13;;;;;;;4.23;3.10;;;;;;;2.46;69.72;98044.94;6115525;28;20214;-89
2023/04/03 02:24:16;;;;;;;4.33;2.90;;;;;;;1.78;69.93;97912.81;6131244;28;20214;-89
2023/04/03 02:27:18;;;;;;;4.93;3.30;;;;;;;2.62;69.64;98052.69;6115360;28;20282;-91
2023/04/03 02:30:20;;;;;;;3.80;2.77;;;;;;;2.91;68.54;98090.50;6130702;28;20238;-89
2023/04/03 02:33:23;;;;;;;3.77;3.10;;;;;;;2.21;69.80;98018.91;6123581;28;20225;-90
2023/04/03 02:36:25;;;;;;;4.60;3.27;;;;;;;2.82;69.56;98101.09;6146422;28;20218;-89
2023/04/03 02:39:31;;;;;;;5.10;3.10;;;;;;;2.75;69.72;98107.25;6115433;28;20328;-89
2023/04/03 02:42:34;;;;;;;4.27;3.10;;;;;;;2.59;69.29;98045.13;6127894;28;20261;-90
2023/04/03 02:45:37;;;;;;;3.43;2.87;;;;;;;2.54;69.65;98050.94;6122859;28;20260;-89
2023/04/03 02:48:39;;;;;;;3.57;2.73;;;;;;;2.54;68.93;98015.94;6131032;28;20267;-89
2023/04/03 02:51:41;;;;;;;4.67;3.30;;;;;;;2.44;69.55;98031.19;6115328;28;20244;-90
2023/04/03 02:54:44;;;;;;;3.33;2.77;;;;;;;2.45;70.36;98056.47;6130448;28;20237;-89
2023/04/03 02:57:46;;;;;;;5.27;2.97;;;;;;;2.58;68.72;98051.41;6139226;28;20236;-90
2023/04/03 03:00:49;;;;;;;3.60;3.13;;;;;;;2.68;69.45;98090.59;6136295;28;20233;-90
2023/04/03 03:03:51;;;;;;;3.77;2.80;;;;;;;2.87;68.63;98087.41;6147059;28;20289;-89
2023/04/03 03:06:53;;;;;;;3.77;2.77;;;;;;;3.05;69.80;98150.19;6136045;28;20625;-89
2023/04/03 03:09:55;;;;;;;3.43;2.97;;;;;;;2.93;70.22;98131.41;6119160;28;20249;-89
2023/04/03 03:12:57;;;;;;;7.77;3.37;;;;;;;2.43;69.79;98051.41;6127649;28;20242;-88
2023/04/03 03:16:00;;;;;;;4.63;2.93;;;;;;;1.63;70.43;97930.38;6135632;28;20324;-89
2023/04/03 03:19:03;;;;;;;4.37;3.20;;;;;;;2.62;70.68;98109.72;6133416;28;20245;-89
2023/04/03 03:22:05;;;;;;;3.30;3.00;;;;;;;2.36;69.56;98058.34;6119276;28;20234;-90
2023/04/03 03:25:08;;;;;;;4.33;3.33;;;;;;;2.29;70.10;98044.31;6134715;28;20309;-89
2023/04/03 03:28:11;;;;;;;4.13;3.30;;;;;;;0.96;69.69;97860.25;6134529;28;20230;-89
2023/04/03 03:31:15;;;;;;;6.27;3.43;;;;;;;2.72;69.84;98105.81;6126357;28;20242;-90
2023/04/03 03:34:17;;;;;;;3.57;2.67;;;;;;;2.99;70.26;98145.66;6119758;28;20332;-90
2023/04/03 03:37:19;;;;;;;4.10;2.73;;;;;;;2.38;69.95;98056.38;6134792;28;20688;-89
2023/04/03 03:40:22;;;;;;;4.57;3.17;;;;;;;2.57;69.83;98090.03;6133761;28;20381;-90
2023/04/03 03:43:24;;;;;;;3.37;3.07;;;;;;;1.63;69.67;97954.00;6125516;28;20607;-89
2023/04/03 03:46:28;;;;;;;5.17;2.87;;;;;;;3.00;69.91;98142.00;6134194;28;20230;-90
2023/04/03 03:49:30;;;;;;;4.90;3.27;;;;;;;2.29;69.32;98052.19;6119931;28;20361;-89
2023/04/03 03:52:32;;;;;;;4.97;3.07;;;;;;;2.46;69.54;98048.38;6137597;28;20243;-89
2023/04/03 03:55:34;;;;;;;3.50;2.90;;;;;;;2.30;69.80;98051.19;6136776;28;20256;-89
2023/04/03 03:58:37;;;;;;;3.73;3.13;;;;;;;2.00;67.78;97961.00;6119944;28;20873;-90
2023/04/03 04:01:39;;;;;;;7.13;3.17;;;;;;;2.50;68.64;98054.94;6103897;28;20238;-89
2023/04/03 04:04:42;;;;;;;4.80;2.90;;;;;;;2.67;69.71;98095.03;6119351;28;20613;-89
2023/04/03 04:07:45;;;;;;;4.03;3.07;;;;;;;2.00;69.42;98018.81;6102444;28;20242;-89
2023/04/03 04:10:47;;;;;;;3.77;2.50;;;;;;;2.35;68.79;98042.78;6119032;28;20245;-91
2023/04/03 04:13:51;;;;;;;3.37;2.93;;;;;;;2.52;68.12;98052.13;6117735;28;20804;-89
2023/04/03 04:16:57;;;;;;;2.83;2.53;;;;;;;3.09;67.87;98154.91;6123591;29;20243;-90
2023/04/03 04:20:04;;;;;;;3.20;2.70;;;;;;;1.72;69.24;97958.16;6099859;28;20245;-90
2023/04/03 04:23:07;;;;;;;3.63;3.00;;;;;;;2.23;69.19;98047.66;6134646;28;20245;-89
2023/04/03 04:26:10;;;;;;;5.03;3.00;;;;;;;1.53;68.70;97922.75;6149711;28;20224;-90
2023/04/03 04:29:14;;;;;;;5.27;2.90;;;;;;;2.29;68.36;98063.53;6134244;28;20241;-89
2023/04/03 04:32:19;;;;;;;4.40;3.20;;;;;;;2.24;69.44;98065.88;6133601;28;20256;-89
2023/04/03 04:35:21;;;;;;;3.67;3.00;;;;;;;2.53;69.50;98124.75;6119796;28;20242;-89
2023/04/03 04:38:25;;;;;;;4.00;3.37;;;;;;;2.02;69.13;98027.31;6118715;28;20222;-89
2023/04/03 04:41:28;;;;;;;4.97;2.87;;;;;;;2.57;69.29;98113.72;6118346;28;20249;-89
2023/04/03 04:44:31;;;;;;;3.80;3.03;;;;;;;1.28;68.90;97911.63;6102599;28;20238;-89
2023/04/03 04:47:33;;;;;;;4.53;3.07;;;;;;;1.94;69.02;98025.59;6117619;28;20225;-90
2023/04/03 04:50:35;;;;;;;5.33;3.17;;;;;;;1.91;69.25;98038.25;6131809;28;20222;-90
2023/04/03 04:53:38;;;;;;;3.60;3.17;;;;;;;2.28;68.45;98063.72;6111107;28;20262;-89
2023/04/03 04:56:41;;;;;;;5.20;3.23;;;;;;;2.61;69.62;98124.69;6121500;28;20247;-89
2023/04/03 04:59:43;;;;;;;4.57;3.37;;;;;;;2.43;69.95;98118.94;6133219;28;20328;-90
2023/04/03 05:02:46;;;;;;;4.20;3.10;;;;;;;2.19;69.64;98086.63;6132701;28;20236;-89
2023/04/03 05:05:48;;;;;;;5.33;2.90;;;;;;;2.13;69.64;98063.69;6116952;28;20240;-89
2023/04/03 05:08:50;;;;;;;3.53;3.10;;;;;;;2.17;69.36;98066.75;6131751;28;20261;-89
2023/04/03 05:11:53;;;;;;;4.33;3.00;;;;;;;2.40;69.00;98128.00;6116120;28;20240;-89
2023/04/03 05:14:59;;;;;;;5.53;2.83;;;;;;;0.12;69.02;97775.47;6132213;28;20257;-90
2023/04/03 05:18:04;;;;;;;4.80;3.07;;;;;;;2.22;69.25;98117.00;6130489;28;20233;-90
2023/04/03 05:21:07;;;;;;;2.93;2.63;;;;;;;1.75;67.43;98020.84;6131624;28;20214;-89
2023/04/03 05:24:10;;;;;;;3.90;3.03;;;;;;;2.13;67.59;98092.59;6132170;28;20218;-89
2023/04/03 05:27:15;;;;;;;4.93;3.20;;;;;;;2.19;68.37;98105.03;6139411;28;20241;-89
2023/04/03 05:30:20;;;;;;;3.73;3.00;;;;;;;2.48;68.79;98156.84;6122079;28;20777;-89
2023/04/03 05:33:25;;;;;;;3.23;2.80;;;;;;;2.15;68.10;98116.06;6122553;28;20613;-89
2023/04/03 05:36:31;;;;;;;4.37;2.80;;;;;;;2.46;68.88;98160.63;6116295;28;20696;-89
2023/04/03 05:39:40;;;;;;;3.20;2.40;;;;;;;2.90;66.96;98194.91;6132152;28;20244;-89
2023/04/03 05:42:44;;;;;;;3.30;2.50;;;;;;;2.23;67.12;98098.44;6120216;28;20823;-88
2023/04/03 05:45:47;;;;;;;4.13;3.00;;;;;;;1.98;67.30;98079.44;6131590;28;20237;-88
2023/04/03 05:48:51;;;;;;;2.83;2.50;;;;;;;2.50;66.52;98156.66;6131660;28;20313;-89
2023/04/03 05:51:55;;;;;;;2.37;1.90;;;;;;;2.15;66.93;98110.81;6132182;28;20244;-89
2023/04/03 05:55:00;;;;;;;4.40;2.47;;;;;;;2.47;67.03;98170.19;6116579;28;20233;-88
2023/04/03 05:58:05;;;;;;;2.50;2.30;;;;;;;2.36;67.01;98136.41;6131170;28;20549;-89
2023/04/03 06:01:07;;;;;;;2.80;2.40;;;;;;;0.95;65.42;97890.91;6117637;28;20318;-89
2023/04/03 06:04:10;;;;;;;2.40;2.07;;;;;;;1.42;65.51;97988.78;6112115;28;20307;-89
2023/04/03 06:07:19;;;;;;;3.53;2.63;;;;;;;2.06;66.45;98104.81;6131184;28;20297;-89
2023/04/03 06:10:23;;;;;;;2.93;2.40;;;;;;;1.97;66.67;98090.94;6124232;28;20247;-90
2023/04/03 06:13:25;;;;;;;5.87;2.73;;;;;;;2.20;65.64;98108.47;6130746;28;20857;-89
2023/04/03 06:16:28;;;;;;;5.70;2.93;;;;;;;2.45;66.00;98159.00;6130662;28;20239;-89
2023/04/03 06:19:30;;;;;;;3.43;2.43;;;;;;;1.97;66.50;98084.84;6114640;28;20244;-89
2023/04/03 06:22:32;;;;;;;3.17;2.60;;;;;;;1.61;66.76;98050.50;6114736;28;20257;-89
2023/04/03 06:25:35;;;;;;;3.17;2.50;;;;;;;2.10;66.57;98127.13;6115144;28;20231;-89
2023/04/03 06:28:37;;;;;;;2.43;2.10;;;;;;;2.04;67.00;98119.94;6126714;28;20231;-89
2023/04/03 06:31:39;;;;;;;4.10;3.00;;;;;;;1.96;66.58;98133.94;6145488;28;20739;-89
2023/04/03 06:34:41;;;;;;;2.70;2.37;;;;;;;2.22;64.91;98124.91;6130299;28;20287;-89
2023/04/03 06:37:43;;;;;;;4.50;2.40;;;;;;;2.31;66.45;98185.09;6131794;28;20280;-89
2023/04/03 06:40:46;;;;;;;3.20;2.60;;;;;;;1.99;66.76;98120.47;6114959;28;20730;-90
2023/04/03 06:43:49;;;;;;;4.63;2.40;;;;;;;1.83;66.51;98098.78;6130923;28;20317;-89
2023/04/03 06:46:51;;;;;;;4.27;2.80;;;;;;;2.76;67.31;98229.94;6135913;28;20231;-88
2023/04/03 06:49:53;;;;;;;2.53;2.23;;;;;;;2.13;67.38;98141.72;6131351;28;20700;-89
2023/04/03 06:52:55;;;;;;;3.13;2.33;;;;;;;2.08;67.27;98144.06;6115140;28;20290;-89
2023/04/03 06:55:57;;;;;;;3.70;2.67;;;;;;;2.31;67.70;98190.34;6129573;28;20273;-90
2023/04/03 06:59:00;;;;;;;4.23;3.07;;;;;;;2.70;66.74;98225.38;6098504;28;20849;-89
2023/04/03 07:02:02;;;;;;;6.47;3.07;;;;;;;2.14;67.92;98143.34;6098359;28;20242;-89
2023/04/03 07:05:05;;;;;;;3.90;2.80;;;;;;;2.07;67.31;98169.53;6114059;28;20729;-89
2023/04/03 07:08:07;;;;;;;4.33;2.80;;;;;;;2.37;66.65;98201.16;6097884;28;20397;-90
2023/04/03 07:11:10;;;;;;;4.10;2.70;;;;;;;2.21;66.89;98165.28;6098799;28;20246;-90
2023/04/03 07:14:12;;;;;;;4.17;2.60;;;;;;;0.19;64.80;97847.94;6114070;28;20237;-89
2023/04/03 07:17:14;;;;;;;2.90;2.13;;;;;;;1.47;65.49;98067.81;6130335;28;20888;-90
2023/04/03 07:20:16;;;;;;;3.87;2.70;;;;;;;2.58;65.04;98241.56;6116208;28;20287;-89
2023/04/03 07:23:19;;;;;;;5.63;2.50;;;;;;;2.40;64.71;98233.16;6100070;28;20231;-89
2023/04/03 07:26:22;;;;;;;3.07;1.97;;;;;;;2.84;65.23;98285.09;6124658;28;20274;-89
2023/04/03 07:29:24;;;;;;;3.37;2.40;;;;;;;2.91;64.21;98286.03;6099087;28;20669;-89
2023/04/03 07:32:26;;;;;;;4.13;2.60;;;;;;;2.04;64.04;98162.81;6098483;28;20291;-88
2023/04/03 07:35:28;;;;;;;3.67;2.40;;;;;;;1.94;64.48;98129.88;6129687;28;20249;-89
2023/04/03 07:38:31;;;;;;;3.53;2.93;;;;;;;2.35;63.68;98201.31;6114764;28;20600;-89
2023/04/03 07:41:33;;;;;;;4.90;2.60;;;;;;;1.35;63.90;98041.16;6115123;28;20243;-90
2023/04/03 07:44:36;;;;;;;4.03;2.50;;;;;;;2.38;64.61;98172.06;6119035;28;20402;-89
2023/04/03 07:47:38;;;;;;;4.03;2.60;;;;;;;2.53;62.59;98174.72;6143549;28;20249;-89
2023/04/03 07:50:41;;;;;;;4.97;2.53;;;;;;;2.11;62.84;98109.53;6144527;28;20216;-89
2023/04/03 07:53:43;;;;;;;3.43;2.40;;;;;;;2.79;61.13;98192.72;6133784;28;20245;-88
2023/04/03 07:56:45;;;;;;;5.17;2.20;;;;;;;2.78;60.13;98193.72;6114926;28;20242;-89
2023/04/03 07:59:47;;;;;;;2.80;2.03;;;;;;;2.91;59.82;98219.44;6139841;28;20714;-90
2023/04/03 08:02:51;;;;;;;3.70;2.27;;;;;;;2.95;61.38;98226.75;6137118;28;20746;-89
2023/04/03 08:05:54;;;;;;;3.03;2.17;;;;;;;3.19;60.58;98194.09;6134741;28;20607;-90
2023/04/03 08:08:56;;;;;;;3.80;2.33;;;;;;;3.85;60.47;98284.53;6143093;28;20226;-89
2023/04/03 08:11:58;;;;;;;2.67;2.30;;;;;;;3.71;59.49;98263.47;6128737;28;20241;-89
2023/04/03 08:15:01;;;;;;;5.37;2.50;;;;;;;3.47;58.86;98241.69;6131089;28;20608;-90
2023/04/03 08:18:03;;;;;;;4.67;2.37;;;;;;;2.85;59.14;98184.09;6131404;28;20587;-90
2023/04/03 08:21:08;;;;;;;3.47;2.30;;;;;;;2.84;60.22;98177.22;6131232;28;20225;-90
2023/04/03 08:24:10;;;;;;;4.07;2.63;;;;;;;3.67;57.70;98226.13;6121947;28;20214;-90
2023/04/03 08:27:12;;;;;;;2.77;1.97;;;;;;;3.48;57.90;98214.34;6149276;28;20242;-90
2023/04/03 08:30:15;;;;;;;2.73;2.43;;;;;;;3.40;57.15;98200.44;6135423;28;20206;-89
2023/04/03 08:33:17;;;;;;;2.73;1.90;;;;;;;3.61;57.85;98185.53;6133059;28;20261;-90
2023/04/03 08:36:25;;;;;;;3.17;2.20;;;;;;;4.08;56.98;98241.38;6132204;28;20678;-90
2023/04/03 08:39:28;;;;;;;4.30;2.20;;;;;;;3.22;53.95;98116.59;6117490;28;20230;-89
2023/04/03 08:43:04;;;;;;;2.87;1.80;;;;;;;3.41;54.13;98205.56;6132736;28;20305;-89
2023/04/03 08:46:13;;;;;;;3.43;2.13;;;;;;;3.01;54.45;98167.34;6141884;28;20245;-89
2023/04/03 08:49:28;;;;;;;4.37;2.20;;;;;;;3.52;55.92;98246.41;6116376;28;20248;-89
2023/04/03 08:52:36;;;;;;;2.97;2.07;;;;;;;3.25;54.63;98195.19;6115188;28;20234;-90
2023/04/03 08:55:47;;;;;;;3.37;2.00;;;;;;;3.49;53.01;98213.34;6135306;28;20246;-89
2023/04/03 08:58:57;;;;;;;3.53;2.07;;;;;;;3.31;52.80;98240.06;6103655;28;20215;-89
2023/04/03 09:02:06;;;;;;;2.90;1.90;;;;;;;3.16;50.65;98177.88;6109067;28;20772;-89
2023/04/03 09:05:43;;;;;;;2.37;1.73;;;;;;;3.74;50.11;98268.34;6116402;28;20500;-89
2023/04/03 09:08:57;;;;;;;2.73;1.90;;;;;;;3.88;50.31;98275.44;6100799;28;20234;-91
2023/04/03 09:12:25;;;;;;;1.77;1.53;;;;;;;3.29;50.97;98155.16;6101385;28;20699;-90
2023/04/03 09:15:28;;;;;;;4.27;1.83;;;;;;;4.46;49.22;98267.56;6155039;28;20226;-89
2023/04/03 09:18:46;;;;;;;2.33;1.90;;;;;;;3.90;48.80;98209.38;6129251;28;20241;-90
2023/04/03 09:21:48;;;;;;;2.77;1.87;;;;;;;3.78;49.48;98191.38;6133535;28;20309;-89
2023/04/03 09:25:09;;;;;;;4.63;1.87;;;;;;;3.93;50.59;98251.16;6139550;28;20230;-88
2023/04/03 09:28:11;;;;;;;4.17;2.03;;;;;;;4.21;49.11;98273.19;6137456;28;20257;-89
2023/04/03 09:31:29;;;;;;;4.33;2.13;;;;;;;4.11;51.55;98291.94;6147473;28;20229;-89
2023/04/03 09:34:36;;;;;;;6.10;2.13;;;;;;;3.50;49.55;98148.34;6100223;29;20250;-90
2023/04/03 09:37:40;;;;;;;2.70;1.90;;;;;;;4.45;49.03;98285.22;6110768;28;20333;-89
2023/04/03 09:40:48;;;;;;;2.10;1.80;;;;;;;3.87;49.35;98205.28;6118552;28;20234;-89
2023/04/03 09:43:53;;;;;;;3.20;2.10;;;;;;;4.28;50.85;98294.34;6108556;28;20716;-90
2023/04/03 09:46:55;;;;;;;5.27;2.43;;;;;;;3.43;50.15;98206.19;6115286;28;20258;-89
2023/04/03 09:50:13;;;;;;;2.70;1.80;;;;;;;3.78;48.50;98299.44;6116541;28;20273;-90
2023/04/03 09:53:30;;;;;;;2.87;1.80;;;;;;;3.63;49.06;98301.25;6100743;28;20381;-88
2023/04/03 09:56:34;;;;;;;2.00;1.40;;;;;;;3.41;47.88;98265.31;6117175;28;20632;-89
2023/04/03 09:59:47;;;;;;;4.17;2.10;;;;;;;3.84;48.26;98311.91;6128609;28;20258;-89
2023/04/03 10:02:55;;;;;;;2.30;1.80;;;;;;;3.38;47.39;98220.91;6112861;28;20438;-89
2023/04/03 10:05:58;;;;;;;2.00;1.33;;;;;;;3.88;48.06;98305.25;6142680;28;20265;-89
2023/04/03 10:09:26;;;;;;;3.17;2.00;;;;;;;4.10;48.32;98300.84;6133211;28;20333;-89
2023/04/03 10:12:29;;;;;;;2.10;1.80;;;;;;;3.58;48.84;98254.38;6128875;28;20368;-90
2023/04/03 10:15:40;;;;;;;3.17;1.73;;;;;;;4.07;46.62;98318.84;6121572;28;20241;-89
2023/04/03 10:18:48;;;;;;;9.10;1.93;;;;;;;3.91;46.66;98311.97;6127898;28;20292;-89
2023/04/03 10:22:08;;;;;;;2.70;1.67;;;;;;;3.98;44.99;98307.59;6112767;28;20289;-89
2023/04/03 10:25:29;;;;;;;3.07;1.63;;;;;;;3.96;45.37;98309.59;6127451;28;20314;-89
2023/04/03 10:29:06;;;;;;;3.13;2.13;;;;;;;3.75;45.67;98276.09;6128285;28;20294;-89
2023/04/03 10:32:33;;;;;;;2.63;1.50;;;;;;;3.92;46.10;98313.59;6111633;28;20328;-89
2023/04/03 10:35:51;;;;;;;4.07;1.93;;;;;;;3.93;45.79;98303.88;6112429;28;20330;-89
2023/04/03 10:39:26;;;;;;;1.70;1.60;;;;;;;4.07;45.56;98300.41;6129827;28;20374;-89
2023/04/03 10:42:44;;;;;;;1.60;1.43;;;;;;;4.19;44.76;98296.31;6142362;28;20223;-89
2023/04/03 10:45:55;;;;;;;2.93;1.83;;;;;;;4.36;45.50;98297.69;6130665;28;20241;-90
2023/04/03 10:49:14;;;;;;;2.07;1.70;;;;;;;4.42;43.42;98303.22;6130502;28;20237;-90
2023/04/03 10:52:41;;;;;;;3.10;1.77;;;;;;;3.64;44.47;98200.16;6128810;28;20317;-89
2023/04/03 10:56:17;;;;;;;2.20;1.53;;;;;;;3.21;41.84;98165.81;6130633;28;20671;-90
2023/04/03 10:59:31;;;;;;;3.03;1.70;;;;;;;4.37;43.59;98315.16;6081461;28;20568;-89
2023/04/03 11:02:51;;;;;;;3.57;2.03;;;;;;;4.59;42.46;98304.63;6111917;28;20308;-89
2023/04/03 11:05:55;;;;;;;2.13;1.70;;;;;;;4.04;44.16;98262.06;6113078;28;20246;-89
2023/04/03 11:09:03;;;;;;;1.70;1.40;;;;;;;3.83;43.00;98236.44;6095536;28;20714;-89
2023/04/03 11:12:31;;;;;;;3.17;1.57;;;;;;;3.73;42.79;98241.19;6113725;28;20230;-89
2023/04/03 11:15:33;;;;;;;4.10;1.83;;;;;;;3.24;43.47;98194.38;6115797;28;20232;-89
2023/04/03 11:18:54;;;;;;;3.27;1.90;;;;;;;3.58;43.82;98214.88;6113816;28;20226;-89
2023/04/03 11:22:15;;;;;;;4.30;1.90;;;;;;;4.34;44.70;98293.63;6116686;28;20231;-89
2023/04/03 11:25:23;;;;;;;3.83;1.53;;;;;;;4.46;42.94;98286.84;6100644;28;20238;-89
2023/04/03 11:28:25;;;;;;;2.33;1.80;;;;;;;2.32;44.03;97963.28;6112046;28;20246;-88
2023/04/03 11:31:37;;;;;;;1.83;1.50;;;;;;;4.49;44.29;98288.28;6117715;28;20320;-89
2023/04/03 11:34:45;;;;;;;2.87;1.60;;;;;;;4.39;43.28;98294.69;6102055;29;20375;-89
2023/04/03 11:37:52;;;;;;;2.60;2.00;;;;;;;4.01;43.68;98254.50;6135262;28;20259;-89
2023/04/03 11:40:56;;;;;;;2.80;1.70;;;;;;;3.94;43.13;98235.19;6111366;28;20316;-90
2023/04/03 11:44:03;;;;;;;3.30;1.70;;;;;;;4.28;42.74;98273.25;6114673;28;20242;-90
2023/04/03 11:47:10;;;;;;;3.03;1.60;;;;;;;4.26;42.46;98235.72;6110531;28;20292;-89
2023/04/03 11:50:33;;;;;;;3.13;1.70;;;;;;;4.80;42.08;98287.97;6115916;28;20746;-90
2023/04/03 11:53:37;;;;;;;2.30;1.83;;;;;;;4.42;41.45;98248.63;6116464;28;20238;-89
2023/04/03 11:56:39;;;;;;;3.43;1.43;;;;;;;4.91;39.84;98287.44;6105506;28;20239;-90
2023/04/03 11:59:41;;;;;;;2.50;1.80;;;;;;;3.86;39.75;98158.84;6117621;28;20233;-89
2023/04/03 12:02:44;;;;;;;2.10;1.70;;;;;;;4.30;41.16;98232.50;6133621;28;20309;-89
2023/04/03 12:06:05;;;;;;;2.60;1.80;;;;;;;4.80;41.82;98285.31;6119611;28;20609;-89
2023/04/03 12:09:43;;;;;;;3.50;2.10;;;;;;;4.43;40.59;98271.38;6115579;28;20231;-89
2023/04/03 12:12:57;;;;;;;2.77;1.70;;;;;;;3.98;41.66;98198.69;6093002;29;20240;-89
2023/04/03 12:16:00;;;;;;;3.10;1.83;;;;;;;4.61;40.66;98323.72;6108388;29;20254;-90
2023/04/03 12:19:14;;;;;;;2.83;1.60;;;;;;;4.80;39.52;98307.25;6092755;29;20318;-89
2023/04/03 12:22:20;;;;;;;3.17;1.80;;;;;;;3.57;38.25;98178.19;6095105;29;20235;-89
2023/04/03 12:25:49;;;;;;;3.37;1.90;;;;;;;3.52;39.34;98199.00;6109748;29;20251;-90
2023/04/03 12:28:53;;;;;;;1.90;1.40;;;;;;;4.36;40.52;98281.88;6091366;29;20242;-89
2023/04/03 12:32:10;;;;;;;3.27;1.83;;;;;;;4.48;38.27;98310.38;6092769;29;20723;-89
2023/04/03 12:35:29;;;;;;;1.90;1.70;;;;;;;4.09;38.21;98295.78;6108684;29;20247;-89
2023/04/03 12:38:58;;;;;;;4.20;1.90;;;;;;;4.01;39.27;98301.16;6106025;29;20286;-90
2023/04/03 12:42:13;;;;;;;3.80;1.80;;;;;;;3.97;38.79;98307.78;6092023;29;20239;-89
2023/04/03 12:45:20;;;;;;;3.27;1.60;;;;;;;3.75;38.04;98309.53;6109806;28;20235;-89
2023/04/03 12:48:29;;;;;;;3.00;1.93;;;;;;;3.19;39.76;98225.69;6129985;28;20325;-88
2023/04/03 12:51:41;;;;;;;2.97;1.80;;;;;;;3.73;38.94;98293.91;6162441;28;20215;-88
2023/04/03 12:54:47;;;;;;;3.53;1.80;;;;;;;3.71;39.18;98287.19;6164894;28;20234;-89
2023/04/03 12:57:49;;;;;;;2.40;1.80;;;;;;;2.96;39.47;98198.66;6154924;28;20339;-89
2023/04/03 13:01:08;;;;;;;2.87;2.10;;;;;;;2.35;40.13;98125.09;6119489;28;20269;-89
2023/04/03 13:04:12;;;;;;;2.40;1.83;;;;;;;2.87;40.39;98203.19;6133754;28;20609;-89
2023/04/03 13:07:37;;;;;;;2.97;2.10;;;;;;;2.70;39.86;98199.88;6146156;28;20266;-89
2023/04/03 13:11:05;;;;;;;3.93;2.07;;;;;;;3.31;40.59;98294.53;6130561;28;20246;-89
2023/04/03 13:14:37;;;;;;;8.73;2.13;;;;;;;3.40;41.34;98282.09;6116652;28;20789;-89
2023/04/03 13:17:41;;;;;;;3.77;1.70;;;;;;;3.74;41.44;98295.53;6108133;29;20383;-89
2023/04/03 13:20:48;;;;;;;3.87;2.23;;;;;;;3.08;39.50;98189.31;6105295;29;20305;-88
2023/04/03 13:23:54;;;;;;;3.77;2.03;;;;;;;3.70;40.50;98291.66;6105725;29;20233;-89
2023/04/03 13:27:13;;;;;;;3.40;2.00;;;;;;;3.15;40.83;98198.09;6101155;28;20232;-89
2023/04/03 13:30:21;;;;;;;4.17;2.17;;;;;;;3.11;39.88;98204.75;6105630;29;20226;-89
2023/04/03 13:33:29;;;;;;;3.27;2.07;;;;;;;3.56;39.29;98263.50;6090397;29;20314;-89
2023/04/03 13:36:34;;;;;;;3.97;2.10;;;;;;;2.74;38.82;98098.56;6091316;29;20354;-89
2023/04/03 13:39:38;;;;;;;2.37;1.70;;;;;;;4.04;37.77;98283.16;6091355;29;20325;-89
2023/04/03 13:42:41;;;;;;;2.50;1.80;;;;;;;3.86;39.72;98228.19;6089585;29;20234;-89
2023/04/03 13:46:10;;;;;;;3.43;2.17;;;;;;;4.16;38.73;98288.75;6090895;29;20230;-89
2023/04/03 13:49:32;;;;;;;3.23;1.80;;;;;;;3.84;40.27;98248.66;6105090;29;20237;-90
2023/04/03 13:52:50;;;;;;;5.00;2.00;;;;;;;4.03;38.54;98263.03;6094149;29;20295;-90
2023/04/03 13:56:08;;;;;;;2.93;1.93;;;;;;;3.99;38.02;98250.41;6130918;28;20622;-89
2023/04/03 13:59:16;;;;;;;3.93;2.17;;;;;;;4.21;39.50;98253.91;6115488;28;20369;-89
2023/04/03 14:02:33;;;;;;;2.27;1.80;;;;;;;3.88;38.35;98162.09;6096587;28;20781;-89
2023/04/03 14:05:35;;;;;;;2.73;1.90;;;;;;;3.91;38.10;98201.28;6113267;28;20284;-89
2023/04/03 14:08:38;;;;;;;4.30;2.00;;;;;;;3.94;37.94;98208.81;6106805;28;20249;-89
2023/04/03 14:11:46;;;;;;;2.60;1.97;;;;;;;4.39;38.34;98239.31;6100182;28;20727;-89
2023/04/03 14:14:48;;;;;;;3.77;2.10;;;;;;;3.80;39.09;98146.44;6098669;28;20242;-88
2023/04/03 14:17:51;;;;;;;3.20;2.00;;;;;;;4.12;38.90;98225.00;6097732;28;20321;-88
2023/04/03 14:20:53;;;;;;;2.63;1.83;;;;;;;3.93;38.41;98195.81;6099192;28;20607;-89
2023/04/03 14:23:56;;;;;;;2.50;2.13;;;;;;;3.62;38.70;98131.03;6115387;28;20238;-89
2023/04/03 14:26:59;;;;;;;2.77;1.80;;;;;;;4.09;39.16;98217.50;6114178;28;20734;-89
2023/04/03 14:30:03;;;;;;;5.43;2.03;;;;;;;3.87;39.12;98227.19;6098354;28;20357;-90
2023/04/03 14:33:06;;;;;;;2.37;1.77;;;;;;;3.09;40.21;98114.59;6131863;28;20713;-90
2023/04/03 14:36:16;;;;;;;3.33;1.97;;;;;;;3.21;39.68;98141.28;6114684;28;20475;-89
2023/04/03 14:39:18;;;;;;;1.63;1.30;;;;;;;3.64;39.29;98152.72;6132606;28;20725;-89
2023/04/03 14:42:25;;;;;;;3.63;1.50;;;;;;;3.65;38.98;98162.28;6114214;28;20225;-89
2023/04/03 14:45:27;;;;;;;1.73;1.50;;;;;;;3.61;38.34;98156.56;6100957;28;20230;-89
2023/04/03 14:48:30;;;;;;;4.17;2.10;;;;;;;4.07;38.70;98213.41;6117937;28;20324;-89